sensor_id;sensor_type;location;lat;lon;timestamp;P1;durP1;ratioP1;P2;durP2;ratioP2
41885;SDS011;27567;43.084;25.616;2022-12-16T00:02:14;48.85;;;28.02;;
41885;SDS011;27567;43.084;25.616;2022-12-16T00:04:58;29.83;;;18.55;;
41885;SDS011;27567;43.084;25.616;2022-12-16T00:07:42;25.23;;;16.10;;
41885;SDS011;27567;43.084;25.616;2022-12-16T00:10:26;23.67;;;13.77;;
41885;SDS011;27567;43.084;25.616;2022-12-16T00:13:30;19.65;;;11.25;;
41885;SDS011;27567;43.084;25.616;2022-12-16T00:16:15;23.80;;;13.95;;
41885;SDS011;27567;43.084;25.616;2022-12-16T00:19:00;17.23;;;10.45;;
41885;SDS011;27567;43.084;25.616;2022-12-16T00:21:44;13.75;;;8.82;;
41885;SDS011;27567;43.084;25.616;2022-12-16T00:24:28;13.52;;;8.30;;
41885;SDS011;27567;43.084;25.616;2022-12-16T00:27:14;11.50;;;6.43;;
41885;SDS011;27567;43.084;25.616;2022-12-16T00:29:57;8.68;;;5.70;;
41885;SDS011;27567;43.084;25.616;2022-12-16T00:32:42;9.18;;;5.85;;
41885;SDS011;27567;43.084;25.616;2022-12-16T00:35:27;11.18;;;7.22;;
41885;SDS011;27567;43.084;25.616;2022-12-16T00:38:13;10.68;;;6.30;;
41885;SDS011;27567;43.084;25.616;2022-12-16T00:40:57;8.80;;;6.22;;
41885;SDS011;27567;43.084;25.616;2022-12-16T00:43:41;8.82;;;5.45;;
41885;SDS011;27567;43.084;25.616;2022-12-16T00:46:25;9.95;;;5.15;;
41885;SDS011;27567;43.084;25.616;2022-12-16T00:49:09;9.48;;;6.38;;
41885;SDS011;27567;43.084;25.616;2022-12-16T00:51:53;8.63;;;5.28;;
41885;SDS011;27567;43.084;25.616;2022-12-16T00:54:37;10.13;;;6.05;;
41885;SDS011;27567;43.084;25.616;2022-12-16T00:57:21;9.77;;;6.22;;
41885;SDS011;27567;43.084;25.616;2022-12-16T01:00:05;9.40;;;5.32;;
41885;SDS011;27567;43.084;25.616;2022-12-16T01:02:50;9.23;;;5.25;;
41885;SDS011;27567;43.084;25.616;2022-12-16T01:05:36;9.45;;;6.05;;
41885;SDS011;27567;43.084;25.616;2022-12-16T01:08:20;20.33;;;11.10;;
41885;SDS011;27567;43.084;25.616;2022-12-16T01:11:04;16.00;;;8.23;;
41885;SDS011;27567;43.084;25.616;2022-12-16T01:13:49;9.18;;;6.18;;
41885;SDS011;27567;43.084;25.616;2022-12-16T01:16:34;8.98;;;5.95;;
41885;SDS011;27567;43.084;25.616;2022-12-16T01:19:18;13.52;;;7.25;;
41885;SDS011;27567;43.084;25.616;2022-12-16T01:22:02;11.63;;;7.65;;
41885;SDS011;27567;43.084;25.616;2022-12-16T01:24:46;11.00;;;7.18;;
41885;SDS011;27567;43.084;25.616;2022-12-16T01:27:30;10.82;;;6.88;;
41885;SDS011;27567;43.084;25.616;2022-12-16T01:30:14;11.90;;;7.50;;
41885;SDS011;27567;43.084;25.616;2022-12-16T01:32:58;14.77;;;8.93;;
41885;SDS011;27567;43.084;25.616;2022-12-16T01:35:42;16.42;;;9.82;;
41885;SDS011;27567;43.084;25.616;2022-12-16T01:38:26;15.35;;;9.82;;
41885;SDS011;27567;43.084;25.616;2022-12-16T01:41:10;17.67;;;11.45;;
41885;SDS011;27567;43.084;25.616;2022-12-16T01:47:18;22.38;;;11.75;;
41885;SDS011;27567;43.084;25.616;2022-12-16T01:50:04;19.88;;;11.25;;
41885;SDS011;27567;43.084;25.616;2022-12-16T01:52:53;19.60;;;11.43;;
41885;SDS011;27567;43.084;25.616;2022-12-16T01:55:39;19.77;;;12.68;;
41885;SDS011;27567;43.084;25.616;2022-12-16T01:58:29;19.52;;;12.57;;
41885;SDS011;27567;43.084;25.616;2022-12-16T02:01:14;19.17;;;12.20;;
41885;SDS011;27567;43.084;25.616;2022-12-16T02:04:00;19.75;;;12.23;;
41885;SDS011;27567;43.084;25.616;2022-12-16T02:06:45;18.02;;;12.30;;
41885;SDS011;27567;43.084;25.616;2022-12-16T02:09:29;18.80;;;11.40;;
41885;SDS011;27567;43.084;25.616;2022-12-16T02:12:19;20.95;;;10.90;;
41885;SDS011;27567;43.084;25.616;2022-12-16T02:37:41;19.63;;;10.52;;
41885;SDS011;27567;43.084;25.616;2022-12-16T02:40:29;18.58;;;11.02;;
41885;SDS011;27567;43.084;25.616;2022-12-16T02:43:26;13.77;;;8.55;;
41885;SDS011;27567;43.084;25.616;2022-12-16T02:46:13;16.45;;;9.38;;
41885;SDS011;27567;43.084;25.616;2022-12-16T02:49:08;13.30;;;8.95;;
41885;SDS011;27567;43.084;25.616;2022-12-16T02:51:52;13.52;;;8.65;;
41885;SDS011;27567;43.084;25.616;2022-12-16T02:54:37;13.82;;;7.72;;
41885;SDS011;27567;43.084;25.616;2022-12-16T03:00:25;15.38;;;8.52;;
41885;SDS011;27567;43.084;25.616;2022-12-16T03:03:17;12.10;;;7.10;;
41885;SDS011;27567;43.084;25.616;2022-12-16T03:06:03;10.95;;;7.43;;
41885;SDS011;27567;43.084;25.616;2022-12-16T03:08:49;15.73;;;7.18;;
41885;SDS011;27567;43.084;25.616;2022-12-16T03:11:34;11.88;;;7.03;;
41885;SDS011;27567;43.084;25.616;2022-12-16T03:14:21;14.30;;;7.78;;
41885;SDS011;27567;43.084;25.616;2022-12-16T03:17:06;12.82;;;7.38;;
41885;SDS011;27567;43.084;25.616;2022-12-16T03:19:52;12.63;;;7.20;;
41885;SDS011;27567;43.084;25.616;2022-12-16T03:22:37;13.52;;;7.28;;
41885;SDS011;27567;43.084;25.616;2022-12-16T03:25:24;15.68;;;7.78;;
41885;SDS011;27567;43.084;25.616;2022-12-16T03:37:06;14.48;;;7.47;;
41885;SDS011;27567;43.084;25.616;2022-12-16T03:39:51;10.20;;;6.30;;
41885;SDS011;27567;43.084;25.616;2022-12-16T03:42:36;12.98;;;6.40;;
41885;SDS011;27567;43.084;25.616;2022-12-16T03:45:28;12.70;;;6.78;;
41885;SDS011;27567;43.084;25.616;2022-12-16T03:48:13;11.60;;;7.13;;
41885;SDS011;27567;43.084;25.616;2022-12-16T03:50:58;14.90;;;6.55;;
41885;SDS011;27567;43.084;25.616;2022-12-16T03:53:41;13.48;;;5.82;;
41885;SDS011;27567;43.084;25.616;2022-12-16T03:56:25;12.77;;;6.43;;
41885;SDS011;27567;43.084;25.616;2022-12-16T03:59:10;13.13;;;7.18;;
41885;SDS011;27567;43.084;25.616;2022-12-16T04:01:54;13.18;;;7.55;;
41885;SDS011;27567;43.084;25.616;2022-12-16T04:04:38;14.18;;;7.72;;
41885;SDS011;27567;43.084;25.616;2022-12-16T04:07:22;13.40;;;7.38;;
41885;SDS011;27567;43.084;25.616;2022-12-16T04:10:07;13.57;;;8.40;;
41885;SDS011;27567;43.084;25.616;2022-12-16T04:12:51;14.93;;;7.82;;
41885;SDS011;27567;43.084;25.616;2022-12-16T04:15:54;15.48;;;8.30;;
41885;SDS011;27567;43.084;25.616;2022-12-16T04:18:57;17.05;;;7.28;;
41885;SDS011;27567;43.084;25.616;2022-12-16T04:22:00;12.60;;;7.18;;
41885;SDS011;27567;43.084;25.616;2022-12-16T04:25:04;14.43;;;7.28;;
41885;SDS011;27567;43.084;25.616;2022-12-16T04:27:49;17.02;;;10.32;;
41885;SDS011;27567;43.084;25.616;2022-12-16T04:30:33;35.55;;;18.83;;
41885;SDS011;27567;43.084;25.616;2022-12-16T04:33:17;28.52;;;10.65;;
41885;SDS011;27567;43.084;25.616;2022-12-16T04:36:20;17.23;;;9.68;;
41885;SDS011;27567;43.084;25.616;2022-12-16T04:39:23;13.40;;;7.72;;
41885;SDS011;27567;43.084;25.616;2022-12-16T04:42:26;28.20;;;14.27;;
41885;SDS011;27567;43.084;25.616;2022-12-16T04:45:29;19.63;;;11.43;;
41885;SDS011;27567;43.084;25.616;2022-12-16T04:48:32;19.52;;;9.48;;
41885;SDS011;27567;43.084;25.616;2022-12-16T04:51:34;20.02;;;11.20;;
41885;SDS011;27567;43.084;25.616;2022-12-16T04:54:57;18.48;;;9.93;;
41885;SDS011;27567;43.084;25.616;2022-12-16T04:58:00;12.68;;;7.55;;
41885;SDS011;27567;43.084;25.616;2022-12-16T05:01:03;16.77;;;7.43;;
41885;SDS011;27567;43.084;25.616;2022-12-16T05:04:06;11.63;;;6.65;;
41885;SDS011;27567;43.084;25.616;2022-12-16T05:07:09;12.20;;;7.78;;
41885;SDS011;27567;43.084;25.616;2022-12-16T05:10:12;15.50;;;6.82;;
41885;SDS011;27567;43.084;25.616;2022-12-16T05:13:15;10.57;;;6.70;;
41885;SDS011;27567;43.084;25.616;2022-12-16T05:16:17;12.43;;;6.63;;
41885;SDS011;27567;43.084;25.616;2022-12-16T05:19:20;12.38;;;5.65;;
41885;SDS011;27567;43.084;25.616;2022-12-16T05:22:23;8.13;;;5.10;;
41885;SDS011;27567;43.084;25.616;2022-12-16T05:25:26;10.00;;;5.30;;
41885;SDS011;27567;43.084;25.616;2022-12-16T05:28:29;8.75;;;5.53;;
41885;SDS011;27567;43.084;25.616;2022-12-16T05:31:32;8.73;;;5.55;;
41885;SDS011;27567;43.084;25.616;2022-12-16T05:34:35;11.80;;;6.03;;
41885;SDS011;27567;43.084;25.616;2022-12-16T05:37:38;9.85;;;6.13;;
41885;SDS011;27567;43.084;25.616;2022-12-16T05:40:40;13.55;;;6.45;;
41885;SDS011;27567;43.084;25.616;2022-12-16T05:43:43;14.80;;;7.25;;
41885;SDS011;27567;43.084;25.616;2022-12-16T05:46:46;9.80;;;5.95;;
41885;SDS011;27567;43.084;25.616;2022-12-16T05:49:49;12.20;;;7.82;;
41885;SDS011;27567;43.084;25.616;2022-12-16T05:52:52;13.18;;;8.02;;
41885;SDS011;27567;43.084;25.616;2022-12-16T05:55:56;19.48;;;11.13;;
41885;SDS011;27567;43.084;25.616;2022-12-16T05:58:58;22.08;;;12.68;;
41885;SDS011;27567;43.084;25.616;2022-12-16T06:02:01;19.10;;;11.57;;
41885;SDS011;27567;43.084;25.616;2022-12-16T06:05:04;25.80;;;12.00;;
41885;SDS011;27567;43.084;25.616;2022-12-16T06:08:07;19.67;;;12.63;;
41885;SDS011;27567;43.084;25.616;2022-12-16T06:11:10;23.02;;;13.02;;
41885;SDS011;27567;43.084;25.616;2022-12-16T06:14:13;23.10;;;13.50;;
41885;SDS011;27567;43.084;25.616;2022-12-16T06:17:15;24.92;;;14.10;;
41885;SDS011;27567;43.084;25.616;2022-12-16T06:20:18;23.60;;;13.25;;
41885;SDS011;27567;43.084;25.616;2022-12-16T06:23:21;24.23;;;13.77;;
41885;SDS011;27567;43.084;25.616;2022-12-16T06:26:24;25.40;;;15.60;;
41885;SDS011;27567;43.084;25.616;2022-12-16T06:29:27;22.35;;;13.00;;
41885;SDS011;27567;43.084;25.616;2022-12-16T06:32:30;24.67;;;13.77;;
41885;SDS011;27567;43.084;25.616;2022-12-16T06:35:33;22.85;;;13.27;;
41885;SDS011;27567;43.084;25.616;2022-12-16T06:38:36;21.83;;;13.35;;
41885;SDS011;27567;43.084;25.616;2022-12-16T06:41:38;23.08;;;14.20;;
41885;SDS011;27567;43.084;25.616;2022-12-16T06:44:41;22.63;;;13.10;;
41885;SDS011;27567;43.084;25.616;2022-12-16T06:47:55;24.48;;;13.50;;
41885;SDS011;27567;43.084;25.616;2022-12-16T06:50:57;21.08;;;12.43;;
41885;SDS011;27567;43.084;25.616;2022-12-16T06:54:00;22.13;;;12.95;;
41885;SDS011;27567;43.084;25.616;2022-12-16T06:57:03;21.13;;;11.13;;
41885;SDS011;27567;43.084;25.616;2022-12-16T07:00:06;21.77;;;12.07;;
41885;SDS011;27567;43.084;25.616;2022-12-16T07:03:09;25.95;;;15.13;;
41885;SDS011;27567;43.084;25.616;2022-12-16T07:06:12;20.67;;;12.95;;
41885;SDS011;27567;43.084;25.616;2022-12-16T07:09:15;22.85;;;13.23;;
41885;SDS011;27567;43.084;25.616;2022-12-16T07:12:18;20.75;;;12.80;;
41885;SDS011;27567;43.084;25.616;2022-12-16T07:15:21;23.88;;;12.25;;
41885;SDS011;27567;43.084;25.616;2022-12-16T07:18:23;23.17;;;12.50;;
41885;SDS011;27567;43.084;25.616;2022-12-16T07:21:26;25.55;;;13.32;;
41885;SDS011;27567;43.084;25.616;2022-12-16T07:24:29;34.03;;;13.20;;
41885;SDS011;27567;43.084;25.616;2022-12-16T07:27:32;27.45;;;13.75;;
41885;SDS011;27567;43.084;25.616;2022-12-16T07:30:35;27.08;;;13.68;;
41885;SDS011;27567;43.084;25.616;2022-12-16T07:33:38;85.55;;;16.55;;
41885;SDS011;27567;43.084;25.616;2022-12-16T07:36:41;41.85;;;15.82;;
41885;SDS011;27567;43.084;25.616;2022-12-16T07:39:43;72.35;;;17.67;;
41885;SDS011;27567;43.084;25.616;2022-12-16T07:42:46;110.97;;;19.45;;
41885;SDS011;27567;43.084;25.616;2022-12-16T07:45:49;214.25;;;21.05;;
41885;SDS011;27567;43.084;25.616;2022-12-16T07:48:52;387.23;;;29.15;;
41885;SDS011;27567;43.084;25.616;2022-12-16T07:51:55;279.17;;;27.77;;
41885;SDS011;27567;43.084;25.616;2022-12-16T07:54:58;291.70;;;26.75;;
41885;SDS011;27567;43.084;25.616;2022-12-16T07:58:01;254.27;;;23.98;;
41885;SDS011;27567;43.084;25.616;2022-12-16T08:01:23;223.02;;;35.88;;
41885;SDS011;27567;43.084;25.616;2022-12-16T08:04:26;45.10;;;15.55;;
41885;SDS011;27567;43.084;25.616;2022-12-16T08:07:29;123.85;;;22.08;;
41885;SDS011;27567;43.084;25.616;2022-12-16T08:10:32;86.10;;;14.07;;
41885;SDS011;27567;43.084;25.616;2022-12-16T08:13:34;39.92;;;12.07;;
41885;SDS011;27567;43.084;25.616;2022-12-16T08:16:38;72.38;;;19.33;;
41885;SDS011;27567;43.084;25.616;2022-12-16T08:22:51;70.95;;;29.67;;
41885;SDS011;27567;43.084;25.616;2022-12-16T08:25:53;38.05;;;16.30;;
41885;SDS011;27567;43.084;25.616;2022-12-16T08:28:56;18.48;;;11.35;;
41885;SDS011;27567;43.084;25.616;2022-12-16T08:31:59;24.23;;;12.40;;
41885;SDS011;27567;43.084;25.616;2022-12-16T08:35:02;22.38;;;11.52;;
41885;SDS011;27567;43.084;25.616;2022-12-16T08:38:05;25.13;;;12.73;;
41885;SDS011;27567;43.084;25.616;2022-12-16T08:41:08;67.85;;;26.08;;
41885;SDS011;27567;43.084;25.616;2022-12-16T08:44:11;21.60;;;12.23;;
41885;SDS011;27567;43.084;25.616;2022-12-16T08:47:14;19.90;;;10.23;;
41885;SDS011;27567;43.084;25.616;2022-12-16T08:50:16;16.58;;;9.77;;
41885;SDS011;27567;43.084;25.616;2022-12-16T08:53:19;38.33;;;15.93;;
41885;SDS011;27567;43.084;25.616;2022-12-16T08:56:22;18.83;;;10.82;;
41885;SDS011;27567;43.084;25.616;2022-12-16T08:59:25;18.75;;;9.52;;
41885;SDS011;27567;43.084;25.616;2022-12-16T09:02:28;16.88;;;9.27;;
41885;SDS011;27567;43.084;25.616;2022-12-16T09:05:31;19.13;;;10.13;;
41885;SDS011;27567;43.084;25.616;2022-12-16T09:08:33;219.25;;;58.22;;
41885;SDS011;27567;43.084;25.616;2022-12-16T09:11:36;80.65;;;27.88;;
41885;SDS011;27567;43.084;25.616;2022-12-16T09:14:39;22.45;;;10.05;;
41885;SDS011;27567;43.084;25.616;2022-12-16T09:17:42;16.95;;;8.90;;
41885;SDS011;27567;43.084;25.616;2022-12-16T09:20:45;15.35;;;9.00;;
41885;SDS011;27567;43.084;25.616;2022-12-16T09:23:47;230.82;;;73.05;;
41885;SDS011;27567;43.084;25.616;2022-12-16T09:26:50;56.88;;;22.30;;
41885;SDS011;27567;43.084;25.616;2022-12-16T09:29:53;99.00;;;30.15;;
41885;SDS011;27567;43.084;25.616;2022-12-16T09:32:56;111.88;;;37.55;;
41885;SDS011;27567;43.084;25.616;2022-12-16T09:35:59;40.35;;;15.95;;
41885;SDS011;27567;43.084;25.616;2022-12-16T09:39:02;25.25;;;13.50;;
41885;SDS011;27567;43.084;25.616;2022-12-16T09:42:08;21.15;;;11.00;;
41885;SDS011;27567;43.084;25.616;2022-12-16T09:51:27;196.18;;;61.88;;
41885;SDS011;27567;43.084;25.616;2022-12-16T09:54:30;22.38;;;10.60;;
41885;SDS011;27567;43.084;25.616;2022-12-16T09:57:35;61.97;;;23.88;;
41885;SDS011;27567;43.084;25.616;2022-12-16T10:00:37;70.78;;;26.75;;
41885;SDS011;27567;43.084;25.616;2022-12-16T10:03:50;25.38;;;12.48;;
41885;SDS011;27567;43.084;25.616;2022-12-16T10:06:56;18.02;;;8.57;;
41885;SDS011;27567;43.084;25.616;2022-12-16T10:10:47;110.93;;;39.67;;
41885;SDS011;27567;43.084;25.616;2022-12-16T10:16:32;21.50;;;11.38;;
41885;SDS011;27567;43.084;25.616;2022-12-16T10:23:02;14.55;;;8.95;;
41885;SDS011;27567;43.084;25.616;2022-12-16T10:26:14;34.33;;;14.40;;
41885;SDS011;27567;43.084;25.616;2022-12-16T10:29:19;10.55;;;7.20;;
41885;SDS011;27567;43.084;25.616;2022-12-16T10:35:27;13.75;;;8.52;;
41885;SDS011;27567;43.084;25.616;2022-12-16T10:41:42;12.73;;;7.13;;
41885;SDS011;27567;43.084;25.616;2022-12-16T10:44:48;10.63;;;6.80;;
41885;SDS011;27567;43.084;25.616;2022-12-16T10:47:51;23.17;;;12.88;;
41885;SDS011;27567;43.084;25.616;2022-12-16T10:50:54;14.80;;;9.82;;
41885;SDS011;27567;43.084;25.616;2022-12-16T10:54:00;47.03;;;25.10;;
41885;SDS011;27567;43.084;25.616;2022-12-16T11:00:20;23.73;;;13.93;;
41885;SDS011;27567;43.084;25.616;2022-12-16T11:03:38;24.42;;;14.98;;
41885;SDS011;27567;43.084;25.616;2022-12-16T11:06:41;42.97;;;22.98;;
41885;SDS011;27567;43.084;25.616;2022-12-16T11:09:44;21.17;;;13.02;;
41885;SDS011;27567;43.084;25.616;2022-12-16T11:12:46;96.03;;;47.97;;
41885;SDS011;27567;43.084;25.616;2022-12-16T11:15:54;22.35;;;11.25;;
41885;SDS011;27567;43.084;25.616;2022-12-16T11:19:20;33.63;;;15.00;;
41885;SDS011;27567;43.084;25.616;2022-12-16T11:22:23;41.20;;;21.45;;
41885;SDS011;27567;43.084;25.616;2022-12-16T11:25:58;67.50;;;33.53;;
41885;SDS011;27567;43.084;25.616;2022-12-16T11:29:07;27.15;;;12.73;;
41885;SDS011;27567;43.084;25.616;2022-12-16T11:32:20;25.73;;;15.65;;
41885;SDS011;27567;43.084;25.616;2022-12-16T11:35:25;36.03;;;19.65;;
41885;SDS011;27567;43.084;25.616;2022-12-16T11:38:33;31.33;;;17.73;;
41885;SDS011;27567;43.084;25.616;2022-12-16T11:41:45;31.63;;;16.88;;
41885;SDS011;27567;43.084;25.616;2022-12-16T11:44:53;43.17;;;17.35;;
41885;SDS011;27567;43.084;25.616;2022-12-16T11:47:59;33.17;;;16.80;;
41885;SDS011;27567;43.084;25.616;2022-12-16T11:51:03;37.78;;;17.40;;
41885;SDS011;27567;43.084;25.616;2022-12-16T11:57:19;31.30;;;17.90;;
41885;SDS011;27567;43.084;25.616;2022-12-16T12:00:24;32.70;;;15.57;;
41885;SDS011;27567;43.084;25.616;2022-12-16T12:03:27;41.22;;;19.27;;
41885;SDS011;27567;43.084;25.616;2022-12-16T12:06:46;13.18;;;9.40;;
41885;SDS011;27567;43.084;25.616;2022-12-16T12:10:53;14.35;;;9.00;;
41885;SDS011;27567;43.084;25.616;2022-12-16T12:22:59;16.98;;;9.68;;
41885;SDS011;27567;43.084;25.616;2022-12-16T12:26:09;12.60;;;9.25;;
41885;SDS011;27567;43.084;25.616;2022-12-16T12:29:16;17.42;;;10.43;;
41885;SDS011;27567;43.084;25.616;2022-12-16T12:32:29;17.50;;;8.80;;
41885;SDS011;27567;43.084;25.616;2022-12-16T12:39:18;23.33;;;9.63;;
41885;SDS011;27567;43.084;25.616;2022-12-16T12:42:26;19.38;;;10.30;;
41885;SDS011;27567;43.084;25.616;2022-12-16T12:45:45;29.42;;;12.63;;
41885;SDS011;27567;43.084;25.616;2022-12-16T12:48:53;12.55;;;9.38;;
41885;SDS011;27567;43.084;25.616;2022-12-16T12:58:23;15.55;;;9.38;;
41885;SDS011;27567;43.084;25.616;2022-12-16T13:01:27;19.20;;;10.43;;
41885;SDS011;27567;43.084;25.616;2022-12-16T13:04:31;14.10;;;9.75;;
41885;SDS011;27567;43.084;25.616;2022-12-16T13:07:34;17.27;;;9.73;;
41885;SDS011;27567;43.084;25.616;2022-12-16T13:10:37;17.23;;;9.98;;
41885;SDS011;27567;43.084;25.616;2022-12-16T13:13:40;24.23;;;11.00;;
41885;SDS011;27567;43.084;25.616;2022-12-16T13:19:52;24.90;;;11.88;;
41885;SDS011;27567;43.084;25.616;2022-12-16T13:22:55;17.30;;;10.03;;
41885;SDS011;27567;43.084;25.616;2022-12-16T13:26:02;15.50;;;11.00;;
41885;SDS011;27567;43.084;25.616;2022-12-16T13:32:19;16.83;;;12.32;;
41885;SDS011;27567;43.084;25.616;2022-12-16T13:35:22;17.08;;;12.40;;
41885;SDS011;27567;43.084;25.616;2022-12-16T13:38:25;29.38;;;15.43;;
41885;SDS011;27567;43.084;25.616;2022-12-16T13:50:44;35.38;;;17.77;;
41885;SDS011;27567;43.084;25.616;2022-12-16T13:54:01;42.45;;;18.50;;
41885;SDS011;27567;43.084;25.616;2022-12-16T13:57:04;39.28;;;16.73;;
41885;SDS011;27567;43.084;25.616;2022-12-16T14:00:26;32.53;;;14.05;;
41885;SDS011;27567;43.084;25.616;2022-12-16T14:03:43;22.77;;;12.00;;
41885;SDS011;27567;43.084;25.616;2022-12-16T14:06:46;29.30;;;12.20;;
41885;SDS011;27567;43.084;25.616;2022-12-16T14:09:50;20.83;;;10.00;;
41885;SDS011;27567;43.084;25.616;2022-12-16T14:13:06;26.90;;;10.80;;
41885;SDS011;27567;43.084;25.616;2022-12-16T14:26:15;17.40;;;7.72;;
41885;SDS011;27567;43.084;25.616;2022-12-16T14:29:20;24.13;;;9.38;;
41885;SDS011;27567;43.084;25.616;2022-12-16T14:32:33;16.67;;;8.20;;
41885;SDS011;27567;43.084;25.616;2022-12-16T14:35:36;12.10;;;7.70;;
41885;SDS011;27567;43.084;25.616;2022-12-16T14:38:38;16.10;;;7.90;;
41885;SDS011;27567;43.084;25.616;2022-12-16T14:41:51;14.50;;;8.18;;
41885;SDS011;27567;43.084;25.616;2022-12-16T14:44:54;17.23;;;8.70;;
41885;SDS011;27567;43.084;25.616;2022-12-16T14:47:57;14.82;;;7.28;;
41885;SDS011;27567;43.084;25.616;2022-12-16T14:51:14;18.55;;;7.35;;
41885;SDS011;27567;43.084;25.616;2022-12-16T14:57:29;22.38;;;8.32;;
41885;SDS011;27567;43.084;25.616;2022-12-16T15:00:32;20.23;;;9.10;;
41885;SDS011;27567;43.084;25.616;2022-12-16T15:03:37;19.08;;;9.18;;
41885;SDS011;27567;43.084;25.616;2022-12-16T15:06:41;16.90;;;8.32;;
41885;SDS011;27567;43.084;25.616;2022-12-16T15:09:46;16.30;;;7.55;;
41885;SDS011;27567;43.084;25.616;2022-12-16T15:12:49;14.40;;;8.15;;
41885;SDS011;27567;43.084;25.616;2022-12-16T15:15:52;14.50;;;7.50;;
41885;SDS011;27567;43.084;25.616;2022-12-16T15:18:58;14.40;;;8.50;;
41885;SDS011;27567;43.084;25.616;2022-12-16T15:22:02;22.33;;;8.50;;
41885;SDS011;27567;43.084;25.616;2022-12-16T15:25:05;16.23;;;8.27;;
41885;SDS011;27567;43.084;25.616;2022-12-16T15:28:36;17.75;;;7.82;;
41885;SDS011;27567;43.084;25.616;2022-12-16T15:31:37;19.05;;;8.98;;
41885;SDS011;27567;43.084;25.616;2022-12-16T15:34:47;16.85;;;8.18;;
41885;SDS011;27567;43.084;25.616;2022-12-16T15:37:50;18.90;;;6.93;;
41885;SDS011;27567;43.084;25.616;2022-12-16T15:40:53;29.33;;;8.55;;
41885;SDS011;27567;43.084;25.616;2022-12-16T15:43:55;17.15;;;8.20;;
41885;SDS011;27567;43.084;25.616;2022-12-16T15:46:58;27.60;;;11.48;;
41885;SDS011;27567;43.084;25.616;2022-12-16T15:50:01;23.05;;;11.20;;
41885;SDS011;27567;43.084;25.616;2022-12-16T15:53:25;22.13;;;9.52;;
41885;SDS011;27567;43.084;25.616;2022-12-16T15:56:40;20.88;;;8.88;;
41885;SDS011;27567;43.084;25.616;2022-12-16T16:00:44;22.13;;;8.13;;
41885;SDS011;27567;43.084;25.616;2022-12-16T16:03:27;21.50;;;8.43;;
41885;SDS011;27567;43.084;25.616;2022-12-16T16:06:30;14.15;;;6.38;;
41885;SDS011;27567;43.084;25.616;2022-12-16T16:09:33;13.60;;;7.05;;
41885;SDS011;27567;43.084;25.616;2022-12-16T16:12:37;13.65;;;7.60;;
41885;SDS011;27567;43.084;25.616;2022-12-16T16:15:39;19.67;;;7.75;;
41885;SDS011;27567;43.084;25.616;2022-12-16T16:18:42;19.45;;;9.43;;
41885;SDS011;27567;43.084;25.616;2022-12-16T16:21:45;17.83;;;9.52;;
41885;SDS011;27567;43.084;25.616;2022-12-16T16:24:48;25.77;;;10.38;;
41885;SDS011;27567;43.084;25.616;2022-12-16T16:27:51;21.10;;;10.43;;
41885;SDS011;27567;43.084;25.616;2022-12-16T16:30:53;27.50;;;13.98;;
41885;SDS011;27567;43.084;25.616;2022-12-16T16:33:56;28.88;;;13.68;;
41885;SDS011;27567;43.084;25.616;2022-12-16T16:36:59;20.75;;;10.90;;
41885;SDS011;27567;43.084;25.616;2022-12-16T16:43:34;25.45;;;11.13;;
41885;SDS011;27567;43.084;25.616;2022-12-16T16:46:38;28.45;;;11.88;;
41885;SDS011;27567;43.084;25.616;2022-12-16T16:49:43;23.48;;;10.70;;
41885;SDS011;27567;43.084;25.616;2022-12-16T16:52:46;30.98;;;13.32;;
41885;SDS011;27567;43.084;25.616;2022-12-16T16:55:52;25.67;;;11.63;;
41885;SDS011;27567;43.084;25.616;2022-12-16T16:58:55;17.75;;;7.90;;
41885;SDS011;27567;43.084;25.616;2022-12-16T17:01:58;12.18;;;6.78;;
41885;SDS011;27567;43.084;25.616;2022-12-16T17:05:01;14.90;;;7.65;;
41885;SDS011;27567;43.084;25.616;2022-12-16T17:08:04;16.90;;;8.32;;
41885;SDS011;27567;43.084;25.616;2022-12-16T17:11:17;23.90;;;9.77;;
41885;SDS011;27567;43.084;25.616;2022-12-16T17:14:20;24.30;;;9.90;;
41885;SDS011;27567;43.084;25.616;2022-12-16T17:17:23;22.85;;;10.75;;
41885;SDS011;27567;43.084;25.616;2022-12-16T17:20:26;18.20;;;9.13;;
41885;SDS011;27567;43.084;25.616;2022-12-16T17:23:29;17.63;;;7.78;;
41885;SDS011;27567;43.084;25.616;2022-12-16T17:26:43;20.33;;;8.85;;
41885;SDS011;27567;43.084;25.616;2022-12-16T17:29:45;15.80;;;7.43;;
41885;SDS011;27567;43.084;25.616;2022-12-16T17:32:49;15.60;;;6.30;;
41885;SDS011;27567;43.084;25.616;2022-12-16T17:35:51;14.07;;;7.28;;
41885;SDS011;27567;43.084;25.616;2022-12-16T17:38:54;13.82;;;7.68;;
41885;SDS011;27567;43.084;25.616;2022-12-16T17:41:57;20.45;;;8.18;;
41885;SDS011;27567;43.084;25.616;2022-12-16T17:45:00;18.50;;;8.50;;
41885;SDS011;27567;43.084;25.616;2022-12-16T17:48:03;14.82;;;8.80;;
41885;SDS011;27567;43.084;25.616;2022-12-16T17:51:06;19.73;;;9.45;;
41885;SDS011;27567;43.084;25.616;2022-12-16T17:54:09;17.50;;;8.35;;
41885;SDS011;27567;43.084;25.616;2022-12-16T17:57:12;21.85;;;7.75;;
41885;SDS011;27567;43.084;25.616;2022-12-16T18:00:15;19.95;;;7.80;;
41885;SDS011;27567;43.084;25.616;2022-12-16T18:03:18;14.80;;;7.30;;
41885;SDS011;27567;43.084;25.616;2022-12-16T18:06:21;16.05;;;8.30;;
41885;SDS011;27567;43.084;25.616;2022-12-16T18:09:23;23.23;;;10.35;;
41885;SDS011;27567;43.084;25.616;2022-12-16T18:12:26;19.48;;;8.50;;
41885;SDS011;27567;43.084;25.616;2022-12-16T18:15:29;17.50;;;8.52;;
41885;SDS011;27567;43.084;25.616;2022-12-16T18:18:33;17.80;;;9.05;;
41885;SDS011;27567;43.084;25.616;2022-12-16T18:21:35;22.88;;;10.52;;
41885;SDS011;27567;43.084;25.616;2022-12-16T18:24:38;30.00;;;12.02;;
41885;SDS011;27567;43.084;25.616;2022-12-16T18:27:41;24.23;;;10.90;;
41885;SDS011;27567;43.084;25.616;2022-12-16T18:30:44;18.88;;;10.18;;
41885;SDS011;27567;43.084;25.616;2022-12-16T18:33:47;18.40;;;8.45;;
41885;SDS011;27567;43.084;25.616;2022-12-16T18:36:50;16.40;;;8.40;;
41885;SDS011;27567;43.084;25.616;2022-12-16T18:39:53;20.42;;;7.93;;
41885;SDS011;27567;43.084;25.616;2022-12-16T18:42:56;16.30;;;7.88;;
41885;SDS011;27567;43.084;25.616;2022-12-16T18:45:59;20.27;;;9.50;;
41885;SDS011;27567;43.084;25.616;2022-12-16T18:49:02;21.80;;;10.18;;
41885;SDS011;27567;43.084;25.616;2022-12-16T18:52:05;18.00;;;8.95;;
41885;SDS011;27567;43.084;25.616;2022-12-16T18:55:12;13.52;;;6.60;;
41885;SDS011;27567;43.084;25.616;2022-12-16T18:58:15;26.42;;;12.23;;
41885;SDS011;27567;43.084;25.616;2022-12-16T19:01:18;21.58;;;10.25;;
41885;SDS011;27567;43.084;25.616;2022-12-16T19:04:20;21.00;;;9.30;;
41885;SDS011;27567;43.084;25.616;2022-12-16T19:07:23;22.25;;;10.43;;
41885;SDS011;27567;43.084;25.616;2022-12-16T19:10:26;17.52;;;8.40;;
41885;SDS011;27567;43.084;25.616;2022-12-16T19:13:29;17.58;;;8.45;;
41885;SDS011;27567;43.084;25.616;2022-12-16T19:16:32;17.17;;;9.32;;
41885;SDS011;27567;43.084;25.616;2022-12-16T19:19:35;17.83;;;7.88;;
41885;SDS011;27567;43.084;25.616;2022-12-16T19:22:38;18.98;;;8.50;;
41885;SDS011;27567;43.084;25.616;2022-12-16T19:25:41;18.58;;;7.70;;
41885;SDS011;27567;43.084;25.616;2022-12-16T19:28:44;20.25;;;8.27;;